sensor_id;sensor_type;location;lat;lon;timestamp;pressure;altitude;pressure_sealevel;temperature;humidity
7774;BME280;3931;42.260;23.116;2023-03-12T00:01:54;94739.53;;;10.21;56.34
7774;BME280;3931;42.260;23.116;2023-03-12T00:04:20;94732.22;;;9.84;56.78
7774;BME280;3931;42.260;23.116;2023-03-12T00:06:46;94734.06;;;9.65;56.56
7774;BME280;3931;42.260;23.116;2023-03-12T00:09:13;94733.34;;;9.30;56.65
7774;BME280;3931;42.260;23.116;2023-03-12T00:11:39;94749.13;;;9.30;56.55
7774;BME280;3931;42.260;23.116;2023-03-12T00:14:05;94756.56;;;9.42;57.20
7774;BME280;3931;42.260;23.116;2023-03-12T00:16:31;94753.63;;;9.71;56.42
7774;BME280;3931;42.260;23.116;2023-03-12T00:18:57;94754.31;;;10.05;55.37
7774;BME280;3931;42.260;23.116;2023-03-12T00:21:23;94750.00;;;10.04;55.21
7774;BME280;3931;42.260;23.116;2023-03-12T00:23:50;94762.97;;;9.73;56.13
7774;BME280;3931;42.260;23.116;2023-03-12T00:26:18;94754.88;;;10.00;55.85
7774;BME280;3931;42.260;23.116;2023-03-12T00:28:46;94773.97;;;9.64;55.34
7774;BME280;3931;42.260;23.116;2023-03-12T00:31:14;94768.78;;;9.66;56.57
7774;BME280;3931;42.260;23.116;2023-03-12T00:33:40;94780.06;;;10.02;55.67
7774;BME280;3931;42.260;23.116;2023-03-12T00:36:07;94779.25;;;9.93;55.05
7774;BME280;3931;42.260;23.116;2023-03-12T00:38:33;94767.28;;;9.74;55.87
7774;BME280;3931;42.260;23.116;2023-03-12T00:40:59;94769.03;;;10.24;54.92
7774;BME280;3931;42.260;23.116;2023-03-12T00:43:26;94775.50;;;9.87;55.34
7774;BME280;3931;42.260;23.116;2023-03-12T00:45:52;94767.41;;;9.71;56.56
7774;BME280;3931;42.260;23.116;2023-03-12T00:48:18;94766.19;;;9.72;55.98
7774;BME280;3931;42.260;23.116;2023-03-12T00:50:44;94763.50;;;10.02;54.27
7774;BME280;3931;42.260;23.116;2023-03-12T00:53:10;94771.25;;;9.05;54.92
7774;BME280;3931;42.260;23.116;2023-03-12T00:55:36;94759.38;;;9.64;54.16
7774;BME280;3931;42.260;23.116;2023-03-12T00:58:02;94770.28;;;9.67;54.52
7774;BME280;3931;42.260;23.116;2023-03-12T01:00:29;94771.63;;;9.41;54.68
7774;BME280;3931;42.260;23.116;2023-03-12T01:02:56;94763.66;;;9.65;55.84
7774;BME280;3931;42.260;23.116;2023-03-12T01:05:22;94763.34;;;9.84;56.45
7774;BME280;3931;42.260;23.116;2023-03-12T01:07:48;94763.41;;;9.93;53.71
7774;BME280;3931;42.260;23.116;2023-03-12T01:10:16;94771.22;;;9.86;54.33
7774;BME280;3931;42.260;23.116;2023-03-12T01:12:42;94768.31;;;9.89;53.05
7774;BME280;3931;42.260;23.116;2023-03-12T01:15:10;94777.19;;;9.16;54.43
7774;BME280;3931;42.260;23.116;2023-03-12T01:17:38;94768.56;;;9.61;53.11
7774;BME280;3931;42.260;23.116;2023-03-12T01:20:06;94768.94;;;9.93;52.92
7774;BME280;3931;42.260;23.116;2023-03-12T01:22:32;94772.88;;;9.27;54.05
7774;BME280;3931;42.260;23.116;2023-03-12T01:24:58;94767.78;;;9.26;54.01
7774;BME280;3931;42.260;23.116;2023-03-12T01:27:25;94754.28;;;9.62;53.61
7774;BME280;3931;42.260;23.116;2023-03-12T01:29:51;94745.06;;;9.99;53.51
7774;BME280;3931;42.260;23.116;2023-03-12T01:32:17;94736.72;;;9.90;52.43
7774;BME280;3931;42.260;23.116;2023-03-12T01:34:44;94736.63;;;10.03;54.00
7774;BME280;3931;42.260;23.116;2023-03-12T01:37:10;94736.75;;;9.56;54.58
7774;BME280;3931;42.260;23.116;2023-03-12T01:39:36;94721.22;;;9.71;55.34
7774;BME280;3931;42.260;23.116;2023-03-12T01:42:03;94739.66;;;9.96;54.94
7774;BME280;3931;42.260;23.116;2023-03-12T01:44:29;94735.47;;;9.91;54.98
7774;BME280;3931;42.260;23.116;2023-03-12T01:46:55;94744.81;;;9.63;56.35
7774;BME280;3931;42.260;23.116;2023-03-12T01:49:24;94742.34;;;9.43;56.82
7774;BME280;3931;42.260;23.116;2023-03-12T01:51:55;94746.53;;;9.70;57.29
7774;BME280;3931;42.260;23.116;2023-03-12T01:54:25;94746.22;;;9.68;56.84
7774;BME280;3931;42.260;23.116;2023-03-12T01:56:55;94740.81;;;9.86;55.12
7774;BME280;3931;42.260;23.116;2023-03-12T01:59:24;94735.28;;;10.07;54.50
7774;BME280;3931;42.260;23.116;2023-03-12T02:01:51;94736.44;;;9.54;55.74
7774;BME280;3931;42.260;23.116;2023-03-12T02:04:20;94735.25;;;9.55;55.36
7774;BME280;3931;42.260;23.116;2023-03-12T02:06:49;94722.75;;;9.94;55.18
7774;BME280;3931;42.260;23.116;2023-03-12T02:09:19;94731.31;;;9.87;54.48
7774;BME280;3931;42.260;23.116;2023-03-12T02:11:46;94734.59;;;9.94;54.96
7774;BME280;3931;42.260;23.116;2023-03-12T02:14:12;94735.00;;;9.28;56.32
7774;BME280;3931;42.260;23.116;2023-03-12T02:16:38;94737.31;;;9.51;56.13
7774;BME280;3931;42.260;23.116;2023-03-12T02:19:09;94722.88;;;9.69;55.96
7774;BME280;3931;42.260;23.116;2023-03-12T02:21:38;94738.56;;;9.72;55.41
7774;BME280;3931;42.260;23.116;2023-03-12T02:24:09;94746.56;;;10.13;55.34
7774;BME280;3931;42.260;23.116;2023-03-12T02:26:39;94748.47;;;10.03;55.40
7774;BME280;3931;42.260;23.116;2023-03-12T02:29:06;94755.75;;;9.20;57.00
7774;BME280;3931;42.260;23.116;2023-03-12T02:31:37;94756.81;;;9.69;56.35
7774;BME280;3931;42.260;23.116;2023-03-12T02:34:06;94764.59;;;9.62;55.98
7774;BME280;3931;42.260;23.116;2023-03-12T02:36:33;94768.38;;;9.55;56.04
7774;BME280;3931;42.260;23.116;2023-03-12T02:38:59;94762.91;;;9.30;57.60
7774;BME280;3931;42.260;23.116;2023-03-12T02:41:28;94758.69;;;9.38;56.98
7774;BME280;3931;42.260;23.116;2023-03-12T02:44:00;94762.09;;;8.95;58.53
7774;BME280;3931;42.260;23.116;2023-03-12T02:46:29;94753.91;;;9.17;57.06
7774;BME280;3931;42.260;23.116;2023-03-12T02:48:57;94769.31;;;9.39;55.89
7774;BME280;3931;42.260;23.116;2023-03-12T02:51:24;94775.38;;;9.34;56.12
7774;BME280;3931;42.260;23.116;2023-03-12T02:53:50;94785.50;;;9.37;56.29
7774;BME280;3931;42.260;23.116;2023-03-12T02:56:20;94778.00;;;9.38;56.28
7774;BME280;3931;42.260;23.116;2023-03-12T02:58:46;94772.22;;;9.23;56.76
7774;BME280;3931;42.260;23.116;2023-03-12T03:01:12;94781.28;;;7.08;61.67
7774;BME280;3931;42.260;23.116;2023-03-12T03:03:38;94778.44;;;6.12;73.59
7774;BME280;3931;42.260;23.116;2023-03-12T03:06:04;94778.22;;;8.34;68.28
7774;BME280;3931;42.260;23.116;2023-03-12T03:08:31;94784.41;;;8.63;65.27
7774;BME280;3931;42.260;23.116;2023-03-12T03:10:57;94788.16;;;8.56;64.57
7774;BME280;3931;42.260;23.116;2023-03-12T03:13:23;94787.69;;;6.02;75.90
7774;BME280;3931;42.260;23.116;2023-03-12T03:15:49;94792.84;;;5.80;79.08
7774;BME280;3931;42.260;23.116;2023-03-12T03:18:16;94791.41;;;5.72;81.30
7774;BME280;3931;42.260;23.116;2023-03-12T03:20:42;94789.53;;;5.88;81.91
7774;BME280;3931;42.260;23.116;2023-03-12T03:23:09;94794.78;;;6.19;80.62
7774;BME280;3931;42.260;23.116;2023-03-12T03:25:35;94798.06;;;6.30;79.20
7774;BME280;3931;42.260;23.116;2023-03-12T03:28:01;94801.59;;;6.30;78.01
7774;BME280;3931;42.260;23.116;2023-03-12T03:30:27;94817.19;;;5.98;79.16
7774;BME280;3931;42.260;23.116;2023-03-12T03:32:53;94817.44;;;5.83;79.92
7774;BME280;3931;42.260;23.116;2023-03-12T03:35:19;94804.22;;;5.78;82.22
7774;BME280;3931;42.260;23.116;2023-03-12T03:37:47;94805.56;;;5.70;82.99
7774;BME280;3931;42.260;23.116;2023-03-12T03:40:13;94809.00;;;5.55;84.90
7774;BME280;3931;42.260;23.116;2023-03-12T03:42:39;94823.63;;;5.68;83.62
7774;BME280;3931;42.260;23.116;2023-03-12T03:45:06;94830.16;;;8.06;70.80
7774;BME280;3931;42.260;23.116;2023-03-12T03:47:33;94834.00;;;6.55;72.30
7774;BME280;3931;42.260;23.116;2023-03-12T03:49:59;94835.78;;;5.90;78.90
7774;BME280;3931;42.260;23.116;2023-03-12T03:52:25;94830.03;;;5.81;81.79
7774;BME280;3931;42.260;23.116;2023-03-12T03:54:51;94834.81;;;5.77;81.95
7774;BME280;3931;42.260;23.116;2023-03-12T03:57:18;94838.84;;;5.72;82.13
7774;BME280;3931;42.260;23.116;2023-03-12T03:59:44;94835.19;;;6.38;82.91
7774;BME280;3931;42.260;23.116;2023-03-12T04:02:10;94845.22;;;5.89;81.19
7774;BME280;3931;42.260;23.116;2023-03-12T04:04:36;94853.53;;;6.60;75.47
7774;BME280;3931;42.260;23.116;2023-03-12T04:07:02;94839.31;;;5.67;83.61
7774;BME280;3931;42.260;23.116;2023-03-12T04:09:29;94849.31;;;5.35;84.70
7774;BME280;3931;42.260;23.116;2023-03-12T04:11:55;94850.66;;;5.27;81.78
7774;BME280;3931;42.260;23.116;2023-03-12T04:14:21;94857.97;;;5.10;85.20
7774;BME280;3931;42.260;23.116;2023-03-12T04:16:47;94847.78;;;5.10;87.80
7774;BME280;3931;42.260;23.116;2023-03-12T04:19:13;94853.66;;;4.86;87.06
7774;BME280;3931;42.260;23.116;2023-03-12T04:21:39;94860.16;;;6.95;82.18
7774;BME280;3931;42.260;23.116;2023-03-12T04:24:06;94866.72;;;5.25;84.00
7774;BME280;3931;42.260;23.116;2023-03-12T04:26:33;94876.47;;;7.67;73.77
7774;BME280;3931;42.260;23.116;2023-03-12T04:28:59;94877.91;;;5.80;77.79
7774;BME280;3931;42.260;23.116;2023-03-12T04:31:25;94882.88;;;5.19;82.80
7774;BME280;3931;42.260;23.116;2023-03-12T04:33:51;94885.63;;;6.08;83.78
7774;BME280;3931;42.260;23.116;2023-03-12T04:36:18;94898.38;;;5.75;77.72
7774;BME280;3931;42.260;23.116;2023-03-12T04:38:44;94903.91;;;4.76;79.94
7774;BME280;3931;42.260;23.116;2023-03-12T04:41:12;94905.91;;;4.75;79.08
7774;BME280;3931;42.260;23.116;2023-03-12T04:43:39;94909.47;;;5.22;79.07
7774;BME280;3931;42.260;23.116;2023-03-12T04:46:06;94917.91;;;5.58;77.86
7774;BME280;3931;42.260;23.116;2023-03-12T04:48:33;94929.19;;;5.13;79.71
7774;BME280;3931;42.260;23.116;2023-03-12T04:50:59;94918.81;;;5.01;79.53
7774;BME280;3931;42.260;23.116;2023-03-12T04:53:25;94925.69;;;4.86;80.31
7774;BME280;3931;42.260;23.116;2023-03-12T04:55:51;94927.56;;;6.48;79.64
7774;BME280;3931;42.260;23.116;2023-03-12T04:58:19;94943.97;;;7.07;68.56
7774;BME280;3931;42.260;23.116;2023-03-12T05:00:46;94955.66;;;5.24;70.21
7774;BME280;3931;42.260;23.116;2023-03-12T05:03:13;94948.88;;;7.15;67.22
7774;BME280;3931;42.260;23.116;2023-03-12T05:05:39;94954.16;;;4.66;73.28
7774;BME280;3931;42.260;23.116;2023-03-12T05:08:05;94959.56;;;4.69;76.36
7774;BME280;3931;42.260;23.116;2023-03-12T05:10:31;94962.91;;;6.07;77.34
7774;BME280;3931;42.260;23.116;2023-03-12T05:12:57;94955.97;;;5.02;73.15
7774;BME280;3931;42.260;23.116;2023-03-12T05:15:24;94974.16;;;5.20;72.54
7774;BME280;3931;42.260;23.116;2023-03-12T05:17:51;94976.00;;;4.99;70.51
7774;BME280;3931;42.260;23.116;2023-03-12T05:20:17;94972.47;;;4.99;71.37
7774;BME280;3931;42.260;23.116;2023-03-12T05:22:44;94980.19;;;5.07;71.55
7774;BME280;3931;42.260;23.116;2023-03-12T05:25:10;94983.03;;;5.27;71.80
7774;BME280;3931;42.260;23.116;2023-03-12T05:27:36;94990.97;;;5.22;72.55
7774;BME280;3931;42.260;23.116;2023-03-12T05:30:03;94994.09;;;5.20;73.44
7774;BME280;3931;42.260;23.116;2023-03-12T05:32:30;94993.44;;;5.12;72.40
7774;BME280;3931;42.260;23.116;2023-03-12T05:34:56;94989.25;;;7.02;69.68
7774;BME280;3931;42.260;23.116;2023-03-12T05:37:22;94996.66;;;5.84;66.16
7774;BME280;3931;42.260;23.116;2023-03-12T05:39:49;95001.59;;;6.75;61.98
7774;BME280;3931;42.260;23.116;2023-03-12T05:42:15;95008.69;;;7.11;60.48
7774;BME280;3931;42.260;23.116;2023-03-12T05:44:42;95015.41;;;6.91;60.41
7774;BME280;3931;42.260;23.116;2023-03-12T05:47:08;95006.22;;;7.85;57.11
7774;BME280;3931;42.260;23.116;2023-03-12T05:49:35;95005.81;;;8.47;55.66
7774;BME280;3931;42.260;23.116;2023-03-12T05:52:01;94999.31;;;7.93;56.17
7774;BME280;3931;42.260;23.116;2023-03-12T05:54:27;95013.56;;;7.40;56.72
7774;BME280;3931;42.260;23.116;2023-03-12T05:56:53;95018.25;;;7.59;56.90
7774;BME280;3931;42.260;23.116;2023-03-12T05:59:20;95023.25;;;7.96;56.05
7774;BME280;3931;42.260;23.116;2023-03-12T06:01:47;95023.94;;;8.32;54.73
7774;BME280;3931;42.260;23.116;2023-03-12T06:04:13;95036.13;;;8.47;54.68
7774;BME280;3931;42.260;23.116;2023-03-12T06:06:39;95034.94;;;8.32;54.61
7774;BME280;3931;42.260;23.116;2023-03-12T06:09:05;95046.72;;;8.77;52.93
7774;BME280;3931;42.260;23.116;2023-03-12T06:11:32;95050.06;;;8.56;52.99
7774;BME280;3931;42.260;23.116;2023-03-12T06:13:58;95054.75;;;9.92;53.90
7774;BME280;3931;42.260;23.116;2023-03-12T06:16:25;95064.09;;;9.44;51.53
7774;BME280;3931;42.260;23.116;2023-03-12T06:18:52;95063.88;;;8.98;52.37
7774;BME280;3931;42.260;23.116;2023-03-12T06:21:20;95058.41;;;10.14;51.12
7774;BME280;3931;42.260;23.116;2023-03-12T06:23:47;95058.75;;;10.16;50.33
7774;BME280;3931;42.260;23.116;2023-03-12T06:26:14;95066.66;;;9.51;49.50
7774;BME280;3931;42.260;23.116;2023-03-12T06:28:41;95066.56;;;9.68;49.32
7774;BME280;3931;42.260;23.116;2023-03-12T06:31:08;95063.69;;;9.46;48.63
7774;BME280;3931;42.260;23.116;2023-03-12T06:33:34;95067.91;;;9.50;45.97
7774;BME280;3931;42.260;23.116;2023-03-12T06:36:02;95078.50;;;9.65;46.57
7774;BME280;3931;42.260;23.116;2023-03-12T06:38:28;95081.72;;;9.22;48.88
7774;BME280;3931;42.260;23.116;2023-03-12T06:40:55;95083.25;;;8.81;47.79
7774;BME280;3931;42.260;23.116;2023-03-12T06:43:23;95087.03;;;9.16;48.17
7774;BME280;3931;42.260;23.116;2023-03-12T06:45:49;95084.66;;;9.02;46.76
7774;BME280;3931;42.260;23.116;2023-03-12T06:48:15;95085.13;;;8.85;46.03
7774;BME280;3931;42.260;23.116;2023-03-12T06:50:42;95084.94;;;9.33;44.59
7774;BME280;3931;42.260;23.116;2023-03-12T06:53:08;95089.00;;;9.57;44.35
7774;BME280;3931;42.260;23.116;2023-03-12T06:55:34;95094.72;;;9.63;43.70
7774;BME280;3931;42.260;23.116;2023-03-12T06:58:00;95102.16;;;9.66;43.92
7774;BME280;3931;42.260;23.116;2023-03-12T07:00:29;95090.59;;;9.29;44.17
7774;BME280;3931;42.260;23.116;2023-03-12T07:02:55;95081.25;;;9.65;44.16
7774;BME280;3931;42.260;23.116;2023-03-12T07:05:21;95088.91;;;10.23;43.81
7774;BME280;3931;42.260;23.116;2023-03-12T07:07:48;95080.28;;;10.47;43.97
7774;BME280;3931;42.260;23.116;2023-03-12T07:10:14;95080.19;;;10.72;44.60
7774;BME280;3931;42.260;23.116;2023-03-12T07:12:40;95080.69;;;11.35;42.50
7774;BME280;3931;42.260;23.116;2023-03-12T07:15:07;95074.16;;;10.86;42.35
7774;BME280;3931;42.260;23.116;2023-03-12T07:17:33;95073.47;;;10.60;42.51
7774;BME280;3931;42.260;23.116;2023-03-12T07:19:59;95076.75;;;11.02;41.97
7774;BME280;3931;42.260;23.116;2023-03-12T07:22:25;95079.78;;;10.95;42.58
7774;BME280;3931;42.260;23.116;2023-03-12T07:24:51;95082.81;;;11.10;42.48
7774;BME280;3931;42.260;23.116;2023-03-12T07:27:17;95085.16;;;10.77;40.98
7774;BME280;3931;42.260;23.116;2023-03-12T07:29:44;95095.31;;;11.57;41.17
7774;BME280;3931;42.260;23.116;2023-03-12T07:32:10;95091.53;;;10.52;41.97
7774;BME280;3931;42.260;23.116;2023-03-12T07:34:37;95092.34;;;11.74;42.06
7774;BME280;3931;42.260;23.116;2023-03-12T07:37:03;95091.91;;;11.53;41.54
7774;BME280;3931;42.260;23.116;2023-03-12T07:39:29;95102.66;;;11.30;41.28
7774;BME280;3931;42.260;23.116;2023-03-12T07:41:56;95095.03;;;11.64;41.99
7774;BME280;3931;42.260;23.116;2023-03-12T07:44:22;95096.97;;;10.43;41.06
7774;BME280;3931;42.260;23.116;2023-03-12T07:46:50;95101.44;;;10.75;40.63
7774;BME280;3931;42.260;23.116;2023-03-12T07:49:16;95101.06;;;10.85;41.88
7774;BME280;3931;42.260;23.116;2023-03-12T07:51:43;95112.75;;;11.45;41.36
7774;BME280;3931;42.260;23.116;2023-03-12T07:54:09;95118.00;;;10.15;42.59
7774;BME280;3931;42.260;23.116;2023-03-12T07:56:35;95116.41;;;10.52;43.80
7774;BME280;3931;42.260;23.116;2023-03-12T07:59:01;95111.72;;;11.09;41.43
7774;BME280;3931;42.260;23.116;2023-03-12T08:01:28;95118.16;;;11.06;41.35
7774;BME280;3931;42.260;23.116;2023-03-12T08:03:56;95126.97;;;10.79;41.61
7774;BME280;3931;42.260;23.116;2023-03-12T08:06:22;95122.63;;;10.44;42.94
7774;BME280;3931;42.260;23.116;2023-03-12T08:08:49;95124.59;;;12.20;41.36
7774;BME280;3931;42.260;23.116;2023-03-12T08:11:15;95114.00;;;12.76;38.96
7774;BME280;3931;42.260;23.116;2023-03-12T08:13:42;95112.22;;;12.42;40.55
7774;BME280;3931;42.260;23.116;2023-03-12T08:16:08;95123.81;;;12.68;40.71
7774;BME280;3931;42.260;23.116;2023-03-12T08:18:34;95124.50;;;12.32;41.83
7774;BME280;3931;42.260;23.116;2023-03-12T08:21:00;95124.59;;;12.20;40.82
7774;BME280;3931;42.260;23.116;2023-03-12T08:23:26;95123.56;;;12.26;40.60
7774;BME280;3931;42.260;23.116;2023-03-12T08:25:54;95130.72;;;12.55;40.94
7774;BME280;3931;42.260;23.116;2023-03-12T08:28:21;95134.88;;;11.80;41.26
7774;BME280;3931;42.260;23.116;2023-03-12T08:30:50;95119.06;;;12.20;41.07
7774;BME280;3931;42.260;23.116;2023-03-12T08:33:17;95121.34;;;11.82;40.83
7774;BME280;3931;42.260;23.116;2023-03-12T08:35:43;95128.06;;;12.42;40.58
7774;BME280;3931;42.260;23.116;2023-03-12T08:38:09;95128.34;;;11.09;40.46
7774;BME280;3931;42.260;23.116;2023-03-12T08:40:35;95117.88;;;11.68;38.95
7774;BME280;3931;42.260;23.116;2023-03-12T08:43:02;95139.81;;;11.20;41.12
7774;BME280;3931;42.260;23.116;2023-03-12T08:45:28;95120.91;;;11.92;39.49
7774;BME280;3931;42.260;23.116;2023-03-12T08:47:55;95111.63;;;12.57;38.05
7774;BME280;3931;42.260;23.116;2023-03-12T08:50:21;95140.97;;;11.31;39.96
7774;BME280;3931;42.260;23.116;2023-03-12T08:52:49;95130.16;;;12.20;38.05
7774;BME280;3931;42.260;23.116;2023-03-12T08:55:15;95129.66;;;12.12;39.23
7774;BME280;3931;42.260;23.116;2023-03-12T08:57:41;95126.09;;;13.09;40.72
7774;BME280;3931;42.260;23.116;2023-03-12T09:00:10;95130.72;;;13.49;36.38
7774;BME280;3931;42.260;23.116;2023-03-12T09:02:39;95138.66;;;12.83;37.97
7774;BME280;3931;42.260;23.116;2023-03-12T09:05:07;95141.63;;;12.00;38.46
7774;BME280;3931;42.260;23.116;2023-03-12T09:07:34;95144.41;;;12.40;41.26
7774;BME280;3931;42.260;23.116;2023-03-12T09:10:00;95128.56;;;13.17;39.64
7774;BME280;3931;42.260;23.116;2023-03-12T09:12:26;95128.13;;;12.60;42.12
7774;BME280;3931;42.260;23.116;2023-03-12T09:14:52;95128.06;;;12.02;39.03
7774;BME280;3931;42.260;23.116;2023-03-12T09:17:19;95131.16;;;11.74;41.03
7774;BME280;3931;42.260;23.116;2023-03-12T09:19:45;95129.03;;;13.24;41.26
7774;BME280;3931;42.260;23.116;2023-03-12T09:22:11;95145.84;;;12.54;37.89
7774;BME280;3931;42.260;23.116;2023-03-12T09:24:37;95150.09;;;11.19;39.25
7774;BME280;3931;42.260;23.116;2023-03-12T09:27:03;95134.81;;;10.80;40.29
7774;BME280;3931;42.260;23.116;2023-03-12T09:29:29;95136.09;;;10.54;41.62
7774;BME280;3931;42.260;23.116;2023-03-12T09:31:55;95146.78;;;11.12;41.89
7774;BME280;3931;42.260;23.116;2023-03-12T09:34:22;95153.63;;;12.37;39.77
7774;BME280;3931;42.260;23.116;2023-03-12T09:36:48;95151.56;;;10.77;40.49
7774;BME280;3931;42.260;23.116;2023-03-12T09:39:15;95157.72;;;10.93;40.81
7774;BME280;3931;42.260;23.116;2023-03-12T09:41:43;95161.84;;;10.89;40.68
7774;BME280;3931;42.260;23.116;2023-03-12T09:44:16;95159.53;;;11.65;41.72
7774;BME280;3931;42.260;23.116;2023-03-12T09:46:48;95164.00;;;11.62;38.67
7774;BME280;3931;42.260;23.116;2023-03-12T09:49:21;95158.25;;;11.79;38.47
7774;BME280;3931;42.260;23.116;2023-03-12T09:51:54;95158.34;;;13.16;37.59
7774;BME280;3931;42.260;23.116;2023-03-12T09:54:25;95176.56;;;11.98;37.83
7774;BME280;3931;42.260;23.116;2023-03-12T09:56:57;95167.84;;;12.48;37.58
7774;BME280;3931;42.260;23.116;2023-03-12T09:59:27;95163.06;;;12.09;37.71
7774;BME280;3931;42.260;23.116;2023-03-12T10:01:55;95153.75;;;12.73;36.81
7774;BME280;3931;42.260;23.116;2023-03-12T10:04:34;95151.16;;;12.79;38.74
7774;BME280;3931;42.260;23.116;2023-03-12T10:07:06;95142.31;;;13.56;38.48
7774;BME280;3931;42.260;23.116;2023-03-12T10:12:47;95156.44;;;12.46;35.71
7774;BME280;3931;42.260;23.116;2023-03-12T10:15:30;95147.69;;;13.33;37.85
7774;BME280;3931;42.260;23.116;2023-03-12T10:18:07;95143.09;;;12.63;36.68
7774;BME280;3931;42.260;23.116;2023-03-12T10:21:05;95150.59;;;12.44;37.10
7774;BME280;3931;42.260;23.116;2023-03-12T10:23:43;95144.06;;;14.05;35.50
7774;BME280;3931;42.260;23.116;2023-03-12T10:26:15;95133.97;;;15.76;36.11
7774;BME280;3931;42.260;23.116;2023-03-12T10:28:47;95117.81;;;14.80;37.89
7774;BME280;3931;42.260;23.116;2023-03-12T10:31:18;95118.03;;;13.66;38.42
7774;BME280;3931;42.260;23.116;2023-03-12T10:33:47;95127.38;;;14.05;39.93
7774;BME280;3931;42.260;23.116;2023-03-12T10:36:18;95126.34;;;15.24;39.88
7774;BME280;3931;42.260;23.116;2023-03-12T10:38:46;95119.53;;;15.63;40.51
7774;BME280;3931;42.260;23.116;2023-03-12T10:41:15;95115.00;;;14.15;37.91
7774;BME280;3931;42.260;23.116;2023-03-12T10:43:42;95099.94;;;12.80;39.01
7774;BME280;3931;42.260;23.116;2023-03-12T10:46:37;95106.34;;;13.17;40.89
7774;BME280;3931;42.260;23.116;2023-03-12T10:49:38;95104.75;;;13.79;40.27
7774;BME280;3931;42.260;23.116;2023-03-12T10:52:06;95108.53;;;14.50;39.53
7774;BME280;3931;42.260;23.116;2023-03-12T10:54:40;95095.31;;;14.93;37.80
7774;BME280;3931;42.260;23.116;2023-03-12T10:57:09;95110.06;;;13.32;37.92
7774;BME280;3931;42.260;23.116;2023-03-12T10:59:37;95097.78;;;12.75;39.22
7774;BME280;3931;42.260;23.116;2023-03-12T11:02:28;95096.66;;;14.41;38.83
7774;BME280;3931;42.260;23.116;2023-03-12T11:04:54;95087.38;;;13.93;39.76
7774;BME280;3931;42.260;23.116;2023-03-12T11:07:23;95097.84;;;14.16;36.92
7774;BME280;3931;42.260;23.116;2023-03-12T11:10:12;95097.38;;;14.83;39.34
7774;BME280;3931;42.260;23.116;2023-03-12T11:12:50;95103.66;;;14.27;36.67
7774;BME280;3931;42.260;23.116;2023-03-12T11:15:19;95101.66;;;15.70;37.14
7774;BME280;3931;42.260;23.116;2023-03-12T11:17:46;95094.06;;;13.86;36.78
7774;BME280;3931;42.260;23.116;2023-03-12T11:20:24;95101.72;;;13.32;37.60
7774;BME280;3931;42.260;23.116;2023-03-12T11:22:50;95105.72;;;13.12;37.42
7774;BME280;3931;42.260;23.116;2023-03-12T11:25:22;95099.53;;;13.63;36.48
7774;BME280;3931;42.260;23.116;2023-03-12T11:27:51;95099.56;;;14.46;37.46
7774;BME280;3931;42.260;23.116;2023-03-12T11:30:22;95104.31;;;13.53;37.13
7774;BME280;3931;42.260;23.116;2023-03-12T11:32:50;95101.81;;;13.64;37.70
7774;BME280;3931;42.260;23.116;2023-03-12T11:35:18;95086.69;;;12.93;37.66
7774;BME280;3931;42.260;23.116;2023-03-12T11:37:55;95095.63;;;13.78;37.15
7774;BME280;3931;42.260;23.116;2023-03-12T11:40:40;95092.50;;;15.16;38.33
7774;BME280;3931;42.260;23.116;2023-03-12T11:43:22;95096.16;;;15.22;36.84
7774;BME280;3931;42.260;23.116;2023-03-12T11:46:06;95074.31;;;14.83;38.88
7774;BME280;3931;42.260;23.116;2023-03-12T11:48:41;95073.69;;;14.31;35.09
7774;BME280;3931;42.260;23.116;2023-03-12T11:51:19;95076.50;;;14.55;36.63
7774;BME280;3931;42.260;23.116;2023-03-12T11:54:11;95073.13;;;14.09;36.96
7774;BME280;3931;42.260;23.116;2023-03-12T11:56:45;95066.22;;;14.37;38.65
7774;BME280;3931;42.260;23.116;2023-03-12T11:59:25;95062.59;;;14.55;36.83
7774;BME280;3931;42.260;23.116;2023-03-12T12:02:03;95055.69;;;15.65;38.61
7774;BME280;3931;42.260;23.116;2023-03-12T12:04:53;95060.47;;;15.65;36.51
7774;BME280;3931;42.260;23.116;2023-03-12T12:07:35;95073.97;;;14.33;36.29
7774;BME280;3931;42.260;23.116;2023-03-12T12:10:09;95075.63;;;14.40;36.51
7774;BME280;3931;42.260;23.116;2023-03-12T12:12:50;95064.53;;;14.87;35.31
7774;BME280;3931;42.260;23.116;2023-03-12T12:15:27;95056.84;;;14.58;35.17
7774;BME280;3931;42.260;23.116;2023-03-12T12:18:01;95060.09;;;15.72;36.86
7774;BME280;3931;42.260;23.116;2023-03-12T12:20:39;95067.06;;;15.38;35.91
7774;BME280;3931;42.260;23.116;2023-03-12T12:23:14;95063.38;;;15.85;36.73
7774;BME280;3931;42.260;23.116;2023-03-12T12:25:53;95058.31;;;15.30;35.15
7774;BME280;3931;42.260;23.116;2023-03-12T12:28:32;95059.13;;;15.46;33.89
7774;BME280;3931;42.260;23.116;2023-03-12T12:31:19;95059.31;;;13.82;35.49
7774;BME280;3931;42.260;23.116;2023-03-12T12:34:11;95058.78;;;14.02;37.81
7774;BME280;3931;42.260;23.116;2023-03-12T12:36:44;95069.38;;;14.54;36.64
7774;BME280;3931;42.260;23.116;2023-03-12T12:39:15;95060.97;;;15.10;38.47
7774;BME280;3931;42.260;23.116;2023-03-12T12:41:49;95050.91;;;14.66;35.06
7774;BME280;3931;42.260;23.116;2023-03-12T12:44:20;95053.28;;;14.58;36.36
7774;BME280;3931;42.260;23.116;2023-03-12T12:46:51;95058.97;;;15.25;35.72
7774;BME280;3931;42.260;23.116;2023-03-12T12:49:21;95048.03;;;15.22;36.15
7774;BME280;3931;42.260;23.116;2023-03-12T12:51:52;95051.19;;;16.32;36.23
7774;BME280;3931;42.260;23.116;2023-03-12T12:54:25;95057.25;;;14.90;34.88
7774;BME280;3931;42.260;23.116;2023-03-12T12:56:56;95059.19;;;14.18;36.25
7774;BME280;3931;42.260;23.116;2023-03-12T12:59:32;95047.06;;;14.39;36.00
7774;BME280;3931;42.260;23.116;2023-03-12T13:02:02;95056.88;;;14.49;36.76
7774;BME280;3931;42.260;23.116;2023-03-12T13:04:31;95054.69;;;14.30;36.60
7774;BME280;3931;42.260;23.116;2023-03-12T13:07:01;95057.63;;;15.35;38.91
7774;BME280;3931;42.260;23.116;2023-03-12T13:09:39;95050.31;;;15.91;38.27
7774;BME280;3931;42.260;23.116;2023-03-12T13:12:11;95058.69;;;15.62;36.66
7774;BME280;3931;42.260;23.116;2023-03-12T13:14:40;95061.66;;;13.74;37.55
7774;BME280;3931;42.260;23.116;2023-03-12T13:17:22;95059.22;;;14.42;40.03
7774;BME280;3931;42.260;23.116;2023-03-12T13:19:50;95041.53;;;14.78;40.39
7774;BME280;3931;42.260;23.116;2023-03-12T13:22:24;95062.84;;;13.92;38.61
7774;BME280;3931;42.260;23.116;2023-03-12T13:24:56;95055.94;;;13.78;39.18
7774;BME280;3931;42.260;23.116;2023-03-12T13:27:28;95049.34;;;14.41;40.30
7774;BME280;3931;42.260;23.116;2023-03-12T13:29:55;95069.75;;;13.00;38.34